sensor_id;sensor_type;location;lat;lon;timestamp;P1;durP1;ratioP1;P2;durP2;ratioP2
12181;SDS011;6154;51.550;12.138;2023-01-25T00:00:54;15.75;;;7.50;;
12181;SDS011;6154;51.550;12.138;2023-01-25T00:03:22;18.42;;;8.05;;
12181;SDS011;6154;51.550;12.138;2023-01-25T00:05:56;15.55;;;6.97;;
12181;SDS011;6154;51.550;12.138;2023-01-25T00:08:26;13.05;;;6.35;;
12181;SDS011;6154;51.550;12.138;2023-01-25T00:10:54;17.48;;;6.82;;
12181;SDS011;6154;51.550;12.138;2023-01-25T00:13:25;17.12;;;6.30;;
12181;SDS011;6154;51.550;12.138;2023-01-25T00:15:59;15.45;;;6.35;;
12181;SDS011;6154;51.550;12.138;2023-01-25T00:18:27;17.75;;;6.85;;
12181;SDS011;6154;51.550;12.138;2023-01-25T00:20:56;15.30;;;7.15;;
12181;SDS011;6154;51.550;12.138;2023-01-25T00:23:24;12.80;;;7.10;;
12181;SDS011;6154;51.550;12.138;2023-01-25T00:25:55;14.02;;;7.12;;
12181;SDS011;6154;51.550;12.138;2023-01-25T00:28:26;14.43;;;6.62;;
12181;SDS011;6154;51.550;12.138;2023-01-25T00:30:57;11.63;;;5.80;;
12181;SDS011;6154;51.550;12.138;2023-01-25T00:33:33;12.20;;;5.68;;
12181;SDS011;6154;51.550;12.138;2023-01-25T00:36:25;11.10;;;5.60;;
12181;SDS011;6154;51.550;12.138;2023-01-25T00:39:02;13.65;;;5.85;;
12181;SDS011;6154;51.550;12.138;2023-01-25T00:41:30;13.13;;;6.72;;
12181;SDS011;6154;51.550;12.138;2023-01-25T00:44:00;13.10;;;6.50;;
12181;SDS011;6154;51.550;12.138;2023-01-25T00:46:29;16.75;;;7.47;;
12181;SDS011;6154;51.550;12.138;2023-01-25T00:48:57;13.32;;;4.90;;
12181;SDS011;6154;51.550;12.138;2023-01-25T00:51:25;13.15;;;5.60;;
12181;SDS011;6154;51.550;12.138;2023-01-25T00:53:53;11.20;;;5.68;;
12181;SDS011;6154;51.550;12.138;2023-01-25T00:56:21;13.20;;;6.43;;
12181;SDS011;6154;51.550;12.138;2023-01-25T00:58:49;7.68;;;4.65;;
12181;SDS011;6154;51.550;12.138;2023-01-25T01:01:19;11.18;;;4.90;;
12181;SDS011;6154;51.550;12.138;2023-01-25T01:03:47;10.45;;;5.35;;
12181;SDS011;6154;51.550;12.138;2023-01-25T01:06:18;14.32;;;6.18;;
12181;SDS011;6154;51.550;12.138;2023-01-25T01:08:46;11.38;;;6.10;;
12181;SDS011;6154;51.550;12.138;2023-01-25T01:11:14;13.27;;;6.45;;
12181;SDS011;6154;51.550;12.138;2023-01-25T01:13:42;10.68;;;4.80;;
12181;SDS011;6154;51.550;12.138;2023-01-25T01:16:11;11.95;;;6.60;;
12181;SDS011;6154;51.550;12.138;2023-01-25T01:18:41;8.68;;;5.12;;
12181;SDS011;6154;51.550;12.138;2023-01-25T01:21:11;15.70;;;6.72;;
12181;SDS011;6154;51.550;12.138;2023-01-25T01:23:40;12.50;;;5.95;;
12181;SDS011;6154;51.550;12.138;2023-01-25T01:26:10;13.48;;;5.43;;
12181;SDS011;6154;51.550;12.138;2023-01-25T01:28:40;10.50;;;5.57;;
12181;SDS011;6154;51.550;12.138;2023-01-25T01:31:10;6.78;;;4.32;;
12181;SDS011;6154;51.550;12.138;2023-01-25T01:33:41;12.30;;;6.60;;
12181;SDS011;6154;51.550;12.138;2023-01-25T01:36:10;12.65;;;5.32;;
12181;SDS011;6154;51.550;12.138;2023-01-25T01:38:41;15.82;;;6.50;;
12181;SDS011;6154;51.550;12.138;2023-01-25T01:41:10;13.40;;;6.07;;
12181;SDS011;6154;51.550;12.138;2023-01-25T01:43:38;19.27;;;6.90;;
12181;SDS011;6154;51.550;12.138;2023-01-25T01:46:08;12.25;;;6.45;;
12181;SDS011;6154;51.550;12.138;2023-01-25T01:48:42;12.55;;;6.40;;
12181;SDS011;6154;51.550;12.138;2023-01-25T01:51:16;14.30;;;5.60;;
12181;SDS011;6154;51.550;12.138;2023-01-25T01:53:49;12.68;;;6.03;;
12181;SDS011;6154;51.550;12.138;2023-01-25T01:56:23;11.73;;;6.03;;
12181;SDS011;6154;51.550;12.138;2023-01-25T01:58:59;11.70;;;5.43;;
12181;SDS011;6154;51.550;12.138;2023-01-25T02:01:29;14.15;;;5.87;;
12181;SDS011;6154;51.550;12.138;2023-01-25T02:04:00;9.60;;;5.50;;
12181;SDS011;6154;51.550;12.138;2023-01-25T02:06:31;15.77;;;6.62;;
12181;SDS011;6154;51.550;12.138;2023-01-25T02:09:06;15.18;;;6.87;;
12181;SDS011;6154;51.550;12.138;2023-01-25T02:11:34;16.35;;;6.62;;
12181;SDS011;6154;51.550;12.138;2023-01-25T02:14:04;20.85;;;8.68;;
12181;SDS011;6154;51.550;12.138;2023-01-25T02:16:34;20.10;;;7.55;;
12181;SDS011;6154;51.550;12.138;2023-01-25T02:19:03;17.15;;;7.72;;
12181;SDS011;6154;51.550;12.138;2023-01-25T02:21:36;17.33;;;8.68;;
12181;SDS011;6154;51.550;12.138;2023-01-25T02:24:08;24.48;;;8.50;;
12181;SDS011;6154;51.550;12.138;2023-01-25T02:26:43;15.48;;;6.75;;
12181;SDS011;6154;51.550;12.138;2023-01-25T02:29:12;17.58;;;7.70;;
12181;SDS011;6154;51.550;12.138;2023-01-25T02:31:42;14.48;;;7.05;;
12181;SDS011;6154;51.550;12.138;2023-01-25T02:34:11;13.85;;;7.20;;
12181;SDS011;6154;51.550;12.138;2023-01-25T02:36:39;18.10;;;8.15;;
12181;SDS011;6154;51.550;12.138;2023-01-25T02:39:10;16.33;;;7.65;;
12181;SDS011;6154;51.550;12.138;2023-01-25T02:41:45;12.68;;;6.25;;
12181;SDS011;6154;51.550;12.138;2023-01-25T02:44:15;19.27;;;7.55;;
12181;SDS011;6154;51.550;12.138;2023-01-25T02:46:46;17.02;;;8.32;;
12181;SDS011;6154;51.550;12.138;2023-01-25T02:49:14;16.95;;;7.53;;
12181;SDS011;6154;51.550;12.138;2023-01-25T02:51:43;16.35;;;7.35;;
12181;SDS011;6154;51.550;12.138;2023-01-25T02:54:14;13.77;;;7.35;;
12181;SDS011;6154;51.550;12.138;2023-01-25T02:56:44;17.08;;;8.15;;
12181;SDS011;6154;51.550;12.138;2023-01-25T02:59:13;16.02;;;7.75;;
12181;SDS011;6154;51.550;12.138;2023-01-25T03:01:42;13.55;;;6.45;;
12181;SDS011;6154;51.550;12.138;2023-01-25T03:04:10;15.85;;;8.02;;
12181;SDS011;6154;51.550;12.138;2023-01-25T03:06:40;18.77;;;7.37;;
12181;SDS011;6154;51.550;12.138;2023-01-25T03:09:09;15.75;;;6.93;;
12181;SDS011;6154;51.550;12.138;2023-01-25T03:11:39;16.73;;;7.55;;
12181;SDS011;6154;51.550;12.138;2023-01-25T03:14:09;16.08;;;7.12;;
12181;SDS011;6154;51.550;12.138;2023-01-25T03:16:38;14.73;;;7.82;;
12181;SDS011;6154;51.550;12.138;2023-01-25T03:19:06;14.80;;;6.45;;
12181;SDS011;6154;51.550;12.138;2023-01-25T03:21:34;16.65;;;7.45;;
12181;SDS011;6154;51.550;12.138;2023-01-25T03:24:02;17.52;;;7.28;;
12181;SDS011;6154;51.550;12.138;2023-01-25T03:26:32;14.63;;;6.57;;
12181;SDS011;6154;51.550;12.138;2023-01-25T03:29:22;12.20;;;6.80;;
12181;SDS011;6154;51.550;12.138;2023-01-25T03:31:51;14.43;;;6.35;;
12181;SDS011;6154;51.550;12.138;2023-01-25T03:34:19;11.02;;;6.60;;
12181;SDS011;6154;51.550;12.138;2023-01-25T03:36:47;13.25;;;6.43;;
12181;SDS011;6154;51.550;12.138;2023-01-25T03:39:16;14.00;;;6.95;;
12181;SDS011;6154;51.550;12.138;2023-01-25T03:41:45;16.15;;;7.75;;
12181;SDS011;6154;51.550;12.138;2023-01-25T03:44:14;18.73;;;7.47;;
12181;SDS011;6154;51.550;12.138;2023-01-25T03:46:44;18.35;;;6.82;;
12181;SDS011;6154;51.550;12.138;2023-01-25T03:49:12;13.60;;;6.47;;
12181;SDS011;6154;51.550;12.138;2023-01-25T03:51:40;13.93;;;6.93;;
12181;SDS011;6154;51.550;12.138;2023-01-25T03:54:09;13.90;;;6.70;;
12181;SDS011;6154;51.550;12.138;2023-01-25T03:56:37;16.23;;;5.90;;
12181;SDS011;6154;51.550;12.138;2023-01-25T03:59:05;15.63;;;6.72;;
12181;SDS011;6154;51.550;12.138;2023-01-25T04:01:33;16.17;;;6.87;;
12181;SDS011;6154;51.550;12.138;2023-01-25T04:04:03;16.95;;;7.40;;
12181;SDS011;6154;51.550;12.138;2023-01-25T04:06:32;13.48;;;6.62;;
12181;SDS011;6154;51.550;12.138;2023-01-25T04:09:00;14.15;;;7.40;;
12181;SDS011;6154;51.550;12.138;2023-01-25T04:11:31;17.85;;;7.57;;
12181;SDS011;6154;51.550;12.138;2023-01-25T04:13:59;14.98;;;7.65;;
12181;SDS011;6154;51.550;12.138;2023-01-25T04:16:28;15.07;;;6.78;;
12181;SDS011;6154;51.550;12.138;2023-01-25T04:18:58;13.55;;;6.57;;
12181;SDS011;6154;51.550;12.138;2023-01-25T04:21:28;22.05;;;8.18;;
12181;SDS011;6154;51.550;12.138;2023-01-25T04:23:56;18.92;;;8.43;;
12181;SDS011;6154;51.550;12.138;2023-01-25T04:26:24;15.57;;;7.30;;
12181;SDS011;6154;51.550;12.138;2023-01-25T04:28:53;19.62;;;8.93;;
12181;SDS011;6154;51.550;12.138;2023-01-25T04:31:21;17.67;;;7.30;;
12181;SDS011;6154;51.550;12.138;2023-01-25T04:33:49;17.30;;;7.90;;
12181;SDS011;6154;51.550;12.138;2023-01-25T04:36:18;19.05;;;8.52;;
12181;SDS011;6154;51.550;12.138;2023-01-25T04:38:47;13.82;;;7.32;;
12181;SDS011;6154;51.550;12.138;2023-01-25T04:41:16;20.85;;;8.85;;
12181;SDS011;6154;51.550;12.138;2023-01-25T04:43:44;13.15;;;7.00;;
12181;SDS011;6154;51.550;12.138;2023-01-25T04:46:13;15.40;;;8.40;;
12181;SDS011;6154;51.550;12.138;2023-01-25T04:48:42;16.87;;;7.80;;
12181;SDS011;6154;51.550;12.138;2023-01-25T04:51:21;18.95;;;8.35;;
12181;SDS011;6154;51.550;12.138;2023-01-25T04:53:51;17.30;;;7.87;;
12181;SDS011;6154;51.550;12.138;2023-01-25T04:56:22;18.05;;;8.40;;
12181;SDS011;6154;51.550;12.138;2023-01-25T04:58:54;15.88;;;7.93;;
12181;SDS011;6154;51.550;12.138;2023-01-25T05:01:23;19.98;;;7.87;;
12181;SDS011;6154;51.550;12.138;2023-01-25T05:03:51;18.08;;;6.78;;
12181;SDS011;6154;51.550;12.138;2023-01-25T05:06:21;17.40;;;7.22;;
12181;SDS011;6154;51.550;12.138;2023-01-25T05:08:49;20.52;;;7.30;;
12181;SDS011;6154;51.550;12.138;2023-01-25T05:11:19;22.95;;;8.10;;
12181;SDS011;6154;51.550;12.138;2023-01-25T05:13:47;18.33;;;7.93;;
12181;SDS011;6154;51.550;12.138;2023-01-25T05:16:16;18.25;;;7.45;;
12181;SDS011;6154;51.550;12.138;2023-01-25T05:18:44;18.23;;;8.20;;
12181;SDS011;6154;51.550;12.138;2023-01-25T05:21:15;16.00;;;7.62;;
12181;SDS011;6154;51.550;12.138;2023-01-25T05:23:57;19.62;;;8.20;;
12181;SDS011;6154;51.550;12.138;2023-01-25T05:26:28;16.73;;;6.65;;
12181;SDS011;6154;51.550;12.138;2023-01-25T05:29:14;18.62;;;6.20;;
12181;SDS011;6154;51.550;12.138;2023-01-25T05:31:42;15.95;;;7.95;;
12181;SDS011;6154;51.550;12.138;2023-01-25T05:34:11;16.58;;;7.30;;
12181;SDS011;6154;51.550;12.138;2023-01-25T05:36:39;15.25;;;7.75;;
12181;SDS011;6154;51.550;12.138;2023-01-25T05:39:07;21.70;;;8.48;;
12181;SDS011;6154;51.550;12.138;2023-01-25T05:41:37;18.23;;;7.78;;
12181;SDS011;6154;51.550;12.138;2023-01-25T05:44:05;19.40;;;7.82;;
12181;SDS011;6154;51.550;12.138;2023-01-25T05:46:34;15.75;;;6.72;;
12181;SDS011;6154;51.550;12.138;2023-01-25T05:49:02;16.70;;;8.25;;
12181;SDS011;6154;51.550;12.138;2023-01-25T05:51:30;15.63;;;7.25;;
12181;SDS011;6154;51.550;12.138;2023-01-25T05:54:00;16.83;;;8.35;;
12181;SDS011;6154;51.550;12.138;2023-01-25T05:56:28;14.90;;;7.47;;
12181;SDS011;6154;51.550;12.138;2023-01-25T05:58:59;17.77;;;7.20;;
12181;SDS011;6154;51.550;12.138;2023-01-25T06:01:28;19.27;;;8.38;;
12181;SDS011;6154;51.550;12.138;2023-01-25T06:03:56;18.48;;;7.40;;
12181;SDS011;6154;51.550;12.138;2023-01-25T06:06:25;16.02;;;6.97;;
12181;SDS011;6154;51.550;12.138;2023-01-25T06:08:53;22.55;;;7.82;;
12181;SDS011;6154;51.550;12.138;2023-01-25T06:11:22;13.88;;;6.95;;
12181;SDS011;6154;51.550;12.138;2023-01-25T06:13:51;17.85;;;7.75;;
12181;SDS011;6154;51.550;12.138;2023-01-25T06:16:21;15.80;;;7.90;;
12181;SDS011;6154;51.550;12.138;2023-01-25T06:18:52;16.65;;;8.10;;
12181;SDS011;6154;51.550;12.138;2023-01-25T06:21:20;19.52;;;7.32;;
12181;SDS011;6154;51.550;12.138;2023-01-25T06:23:48;16.08;;;8.30;;
12181;SDS011;6154;51.550;12.138;2023-01-25T06:26:17;18.00;;;7.32;;
12181;SDS011;6154;51.550;12.138;2023-01-25T06:28:45;15.38;;;7.30;;
12181;SDS011;6154;51.550;12.138;2023-01-25T06:31:14;22.30;;;8.45;;
12181;SDS011;6154;51.550;12.138;2023-01-25T06:33:47;20.75;;;8.63;;
12181;SDS011;6154;51.550;12.138;2023-01-25T06:36:18;16.35;;;7.60;;
12181;SDS011;6154;51.550;12.138;2023-01-25T06:38:48;14.20;;;7.25;;
12181;SDS011;6154;51.550;12.138;2023-01-25T06:41:17;18.02;;;6.50;;
12181;SDS011;6154;51.550;12.138;2023-01-25T06:43:47;15.73;;;7.35;;
12181;SDS011;6154;51.550;12.138;2023-01-25T06:46:17;18.37;;;6.85;;
12181;SDS011;6154;51.550;12.138;2023-01-25T06:48:47;14.18;;;6.35;;
12181;SDS011;6154;51.550;12.138;2023-01-25T06:51:15;16.52;;;6.90;;
12181;SDS011;6154;51.550;12.138;2023-01-25T06:53:44;15.65;;;7.55;;
12181;SDS011;6154;51.550;12.138;2023-01-25T06:56:14;20.45;;;7.32;;
12181;SDS011;6154;51.550;12.138;2023-01-25T06:58:44;18.12;;;7.62;;
12181;SDS011;6154;51.550;12.138;2023-01-25T07:01:13;15.30;;;7.25;;
12181;SDS011;6154;51.550;12.138;2023-01-25T07:03:48;20.62;;;8.02;;
12181;SDS011;6154;51.550;12.138;2023-01-25T07:06:16;19.50;;;7.53;;
12181;SDS011;6154;51.550;12.138;2023-01-25T07:08:44;15.68;;;6.75;;
12181;SDS011;6154;51.550;12.138;2023-01-25T07:11:13;21.25;;;7.78;;
12181;SDS011;6154;51.550;12.138;2023-01-25T07:13:45;14.48;;;7.50;;
12181;SDS011;6154;51.550;12.138;2023-01-25T07:16:15;15.77;;;6.53;;
12181;SDS011;6154;51.550;12.138;2023-01-25T07:18:45;17.55;;;7.15;;
12181;SDS011;6154;51.550;12.138;2023-01-25T07:21:16;18.15;;;7.10;;
12181;SDS011;6154;51.550;12.138;2023-01-25T07:23:46;15.98;;;6.70;;
12181;SDS011;6154;51.550;12.138;2023-01-25T07:26:15;13.68;;;6.32;;
12181;SDS011;6154;51.550;12.138;2023-01-25T07:28:44;16.60;;;6.97;;
12181;SDS011;6154;51.550;12.138;2023-01-25T07:31:13;13.65;;;6.12;;
12181;SDS011;6154;51.550;12.138;2023-01-25T07:33:42;17.05;;;7.32;;
12181;SDS011;6154;51.550;12.138;2023-01-25T07:36:12;18.20;;;6.35;;
12181;SDS011;6154;51.550;12.138;2023-01-25T07:38:40;16.12;;;7.62;;
12181;SDS011;6154;51.550;12.138;2023-01-25T07:41:08;15.07;;;6.05;;
12181;SDS011;6154;51.550;12.138;2023-01-25T07:43:36;16.33;;;6.50;;
12181;SDS011;6154;51.550;12.138;2023-01-25T07:46:05;20.58;;;7.25;;
12181;SDS011;6154;51.550;12.138;2023-01-25T07:48:36;11.25;;;5.93;;
12181;SDS011;6154;51.550;12.138;2023-01-25T07:51:06;14.63;;;6.90;;
12181;SDS011;6154;51.550;12.138;2023-01-25T07:53:50;15.27;;;6.45;;
12181;SDS011;6154;51.550;12.138;2023-01-25T07:56:20;14.15;;;5.65;;
12181;SDS011;6154;51.550;12.138;2023-01-25T07:58:50;14.30;;;6.35;;
12181;SDS011;6154;51.550;12.138;2023-01-25T08:01:20;13.62;;;7.07;;
12181;SDS011;6154;51.550;12.138;2023-01-25T08:03:49;15.90;;;7.15;;
12181;SDS011;6154;51.550;12.138;2023-01-25T08:06:21;16.50;;;7.07;;
12181;SDS011;6154;51.550;12.138;2023-01-25T08:08:55;17.83;;;6.45;;
12181;SDS011;6154;51.550;12.138;2023-01-25T08:11:24;16.58;;;7.03;;
12181;SDS011;6154;51.550;12.138;2023-01-25T08:13:54;17.10;;;7.05;;
12181;SDS011;6154;51.550;12.138;2023-01-25T08:16:22;13.00;;;6.03;;
12181;SDS011;6154;51.550;12.138;2023-01-25T08:18:52;14.80;;;7.00;;
12181;SDS011;6154;51.550;12.138;2023-01-25T08:21:22;17.10;;;7.10;;
12181;SDS011;6154;51.550;12.138;2023-01-25T08:23:57;12.95;;;6.12;;
12181;SDS011;6154;51.550;12.138;2023-01-25T08:26:26;20.65;;;7.57;;
12181;SDS011;6154;51.550;12.138;2023-01-25T08:28:55;11.80;;;6.37;;
12181;SDS011;6154;51.550;12.138;2023-01-25T08:31:24;14.98;;;6.85;;
12181;SDS011;6154;51.550;12.138;2023-01-25T08:33:53;13.68;;;5.78;;
12181;SDS011;6154;51.550;12.138;2023-01-25T08:36:22;19.10;;;6.90;;
12181;SDS011;6154;51.550;12.138;2023-01-25T08:38:52;18.50;;;7.50;;
12181;SDS011;6154;51.550;12.138;2023-01-25T08:41:23;14.23;;;7.10;;
12181;SDS011;6154;51.550;12.138;2023-01-25T08:43:53;16.02;;;7.07;;
12181;SDS011;6154;51.550;12.138;2023-01-25T08:46:22;13.82;;;6.93;;
12181;SDS011;6154;51.550;12.138;2023-01-25T08:48:54;20.15;;;7.18;;
12181;SDS011;6154;51.550;12.138;2023-01-25T08:51:23;15.20;;;7.12;;
12181;SDS011;6154;51.550;12.138;2023-01-25T08:53:52;15.70;;;6.22;;
12181;SDS011;6154;51.550;12.138;2023-01-25T08:56:20;16.98;;;7.03;;
12181;SDS011;6154;51.550;12.138;2023-01-25T08:58:50;14.98;;;6.43;;
12181;SDS011;6154;51.550;12.138;2023-01-25T09:01:18;13.45;;;6.32;;
12181;SDS011;6154;51.550;12.138;2023-01-25T09:03:47;14.63;;;7.37;;
12181;SDS011;6154;51.550;12.138;2023-01-25T09:06:17;17.90;;;6.75;;
12181;SDS011;6154;51.550;12.138;2023-01-25T09:08:46;19.80;;;7.93;;
12181;SDS011;6154;51.550;12.138;2023-01-25T09:11:15;25.42;;;8.18;;
12181;SDS011;6154;51.550;12.138;2023-01-25T09:13:45;17.40;;;6.45;;
12181;SDS011;6154;51.550;12.138;2023-01-25T09:16:16;17.60;;;7.93;;
12181;SDS011;6154;51.550;12.138;2023-01-25T09:18:49;17.45;;;7.87;;
12181;SDS011;6154;51.550;12.138;2023-01-25T09:21:17;17.30;;;7.00;;
12181;SDS011;6154;51.550;12.138;2023-01-25T09:23:46;13.00;;;6.37;;
12181;SDS011;6154;51.550;12.138;2023-01-25T09:26:23;13.10;;;7.03;;
12181;SDS011;6154;51.550;12.138;2023-01-25T09:28:52;15.80;;;6.78;;
12181;SDS011;6154;51.550;12.138;2023-01-25T09:31:22;13.55;;;5.55;;
12181;SDS011;6154;51.550;12.138;2023-01-25T09:33:53;16.83;;;6.47;;
12181;SDS011;6154;51.550;12.138;2023-01-25T09:36:22;11.32;;;5.80;;
12181;SDS011;6154;51.550;12.138;2023-01-25T09:38:50;16.80;;;6.78;;
12181;SDS011;6154;51.550;12.138;2023-01-25T09:41:39;17.80;;;7.22;;
12181;SDS011;6154;51.550;12.138;2023-01-25T09:44:33;16.48;;;6.68;;
12181;SDS011;6154;51.550;12.138;2023-01-25T09:47:15;13.18;;;6.82;;
12181;SDS011;6154;51.550;12.138;2023-01-25T09:49:57;18.02;;;6.47;;
12181;SDS011;6154;51.550;12.138;2023-01-25T09:52:54;20.62;;;8.38;;
12181;SDS011;6154;51.550;12.138;2023-01-25T09:55:43;18.52;;;6.37;;
12181;SDS011;6154;51.550;12.138;2023-01-25T09:58:21;16.58;;;8.02;;
12181;SDS011;6154;51.550;12.138;2023-01-25T10:00:58;17.87;;;8.10;;
12181;SDS011;6154;51.550;12.138;2023-01-25T10:03:44;11.38;;;6.50;;
12181;SDS011;6154;51.550;12.138;2023-01-25T10:06:16;11.27;;;6.65;;
12181;SDS011;6154;51.550;12.138;2023-01-25T10:08:51;11.52;;;6.25;;
12181;SDS011;6154;51.550;12.138;2023-01-25T10:11:25;13.82;;;6.15;;
12181;SDS011;6154;51.550;12.138;2023-01-25T10:13:55;14.90;;;6.57;;
12181;SDS011;6154;51.550;12.138;2023-01-25T10:16:28;12.77;;;6.75;;
12181;SDS011;6154;51.550;12.138;2023-01-25T10:19:04;16.12;;;7.20;;
12181;SDS011;6154;51.550;12.138;2023-01-25T10:21:39;17.00;;;6.70;;
12181;SDS011;6154;51.550;12.138;2023-01-25T10:27:17;15.30;;;6.18;;
12181;SDS011;6154;51.550;12.138;2023-01-25T10:29:55;15.55;;;6.32;;
12181;SDS011;6154;51.550;12.138;2023-01-25T10:32:27;15.10;;;7.57;;
12181;SDS011;6154;51.550;12.138;2023-01-25T10:35:04;12.52;;;7.07;;
12181;SDS011;6154;51.550;12.138;2023-01-25T10:38:01;16.20;;;6.90;;
12181;SDS011;6154;51.550;12.138;2023-01-25T10:40:34;15.35;;;6.62;;
12181;SDS011;6154;51.550;12.138;2023-01-25T10:43:11;13.23;;;7.57;;
12181;SDS011;6154;51.550;12.138;2023-01-25T10:45:44;16.98;;;7.45;;
12181;SDS011;6154;51.550;12.138;2023-01-25T10:48:14;16.35;;;7.28;;
12181;SDS011;6154;51.550;12.138;2023-01-25T10:50:52;20.10;;;8.63;;
12181;SDS011;6154;51.550;12.138;2023-01-25T10:53:25;16.37;;;7.28;;
12181;SDS011;6154;51.550;12.138;2023-01-25T10:56:04;16.17;;;7.55;;
12181;SDS011;6154;51.550;12.138;2023-01-25T10:58:43;12.27;;;6.15;;
12181;SDS011;6154;51.550;12.138;2023-01-25T11:01:22;16.15;;;7.45;;
12181;SDS011;6154;51.550;12.138;2023-01-25T11:03:53;13.85;;;7.15;;
12181;SDS011;6154;51.550;12.138;2023-01-25T11:06:31;15.20;;;6.32;;
12181;SDS011;6154;51.550;12.138;2023-01-25T11:09:01;14.02;;;5.68;;
12181;SDS011;6154;51.550;12.138;2023-01-25T11:11:52;15.57;;;6.25;;
12181;SDS011;6154;51.550;12.138;2023-01-25T11:14:22;9.32;;;5.05;;
12181;SDS011;6154;51.550;12.138;2023-01-25T11:16:53;13.07;;;6.53;;
12181;SDS011;6154;51.550;12.138;2023-01-25T11:19:24;12.02;;;6.37;;
12181;SDS011;6154;51.550;12.138;2023-01-25T11:21:57;10.93;;;5.97;;
12181;SDS011;6154;51.550;12.138;2023-01-25T11:24:26;13.68;;;6.62;;
12181;SDS011;6154;51.550;12.138;2023-01-25T11:27:12;16.80;;;7.05;;
12181;SDS011;6154;51.550;12.138;2023-01-25T11:29:44;17.02;;;7.00;;
12181;SDS011;6154;51.550;12.138;2023-01-25T11:32:15;11.82;;;7.03;;
12181;SDS011;6154;51.550;12.138;2023-01-25T11:34:48;14.68;;;7.40;;
12181;SDS011;6154;51.550;12.138;2023-01-25T11:37:22;15.70;;;6.87;;
12181;SDS011;6154;51.550;12.138;2023-01-25T11:39:58;15.88;;;6.87;;
12181;SDS011;6154;51.550;12.138;2023-01-25T11:42:43;19.05;;;8.05;;
12181;SDS011;6154;51.550;12.138;2023-01-25T11:48:40;12.13;;;7.32;;
12181;SDS011;6154;51.550;12.138;2023-01-25T11:51:30;19.60;;;7.62;;
12181;SDS011;6154;51.550;12.138;2023-01-25T11:54:12;15.00;;;7.35;;
12181;SDS011;6154;51.550;12.138;2023-01-25T11:56:57;17.02;;;8.05;;
12181;SDS011;6154;51.550;12.138;2023-01-25T11:59:38;18.15;;;8.02;;
12181;SDS011;6154;51.550;12.138;2023-01-25T12:02:24;15.60;;;8.18;;
12181;SDS011;6154;51.550;12.138;2023-01-25T12:05:20;12.07;;;6.55;;
12181;SDS011;6154;51.550;12.138;2023-01-25T12:07:58;13.88;;;7.18;;
12181;SDS011;6154;51.550;12.138;2023-01-25T12:10:36;10.38;;;5.95;;
12181;SDS011;6154;51.550;12.138;2023-01-25T12:13:11;9.68;;;5.75;;
12181;SDS011;6154;51.550;12.138;2023-01-25T12:15:49;17.20;;;6.85;;
12181;SDS011;6154;51.550;12.138;2023-01-25T12:18:31;12.55;;;5.37;;
12181;SDS011;6154;51.550;12.138;2023-01-25T12:21:21;10.38;;;6.12;;
12181;SDS011;6154;51.550;12.138;2023-01-25T12:24:03;12.57;;;6.68;;
12181;SDS011;6154;51.550;12.138;2023-01-25T12:26:47;15.02;;;6.78;;
12181;SDS011;6154;51.550;12.138;2023-01-25T12:29:23;12.70;;;7.05;;
12181;SDS011;6154;51.550;12.138;2023-01-25T12:31:59;17.27;;;7.18;;
12181;SDS011;6154;51.550;12.138;2023-01-25T12:34:32;19.85;;;8.18;;
12181;SDS011;6154;51.550;12.138;2023-01-25T12:37:05;15.55;;;7.90;;
12181;SDS011;6154;51.550;12.138;2023-01-25T12:39:40;20.50;;;9.07;;
12181;SDS011;6154;51.550;12.138;2023-01-25T12:42:16;17.37;;;8.00;;
12181;SDS011;6154;51.550;12.138;2023-01-25T12:44:48;16.67;;;8.07;;
12181;SDS011;6154;51.550;12.138;2023-01-25T12:47:22;17.05;;;8.15;;
12181;SDS011;6154;51.550;12.138;2023-01-25T12:49:59;19.60;;;8.13;;
12181;SDS011;6154;51.550;12.138;2023-01-25T12:52:40;20.70;;;8.90;;
12181;SDS011;6154;51.550;12.138;2023-01-25T12:55:15;15.30;;;7.80;;
12181;SDS011;6154;51.550;12.138;2023-01-25T12:57:50;15.85;;;8.43;;
12181;SDS011;6154;51.550;12.138;2023-01-25T13:00:28;14.15;;;7.85;;
12181;SDS011;6154;51.550;12.138;2023-01-25T13:03:05;18.12;;;7.57;;
12181;SDS011;6154;51.550;12.138;2023-01-25T13:05:43;16.08;;;8.18;;
12181;SDS011;6154;51.550;12.138;2023-01-25T13:08:20;14.80;;;8.55;;
12181;SDS011;6154;51.550;12.138;2023-01-25T13:11:07;15.48;;;8.10;;
12181;SDS011;6154;51.550;12.138;2023-01-25T13:13:40;20.02;;;8.98;;
12181;SDS011;6154;51.550;12.138;2023-01-25T13:16:22;16.23;;;9.20;;
12181;SDS011;6154;51.550;12.138;2023-01-25T13:19:17;18.67;;;8.65;;
12181;SDS011;6154;51.550;12.138;2023-01-25T13:21:47;15.00;;;8.35;;
12181;SDS011;6154;51.550;12.138;2023-01-25T13:24:19;16.70;;;8.32;;
12181;SDS011;6154;51.550;12.138;2023-01-25T13:26:57;14.65;;;7.60;;
12181;SDS011;6154;51.550;12.138;2023-01-25T13:32:51;17.80;;;8.75;;
12181;SDS011;6154;51.550;12.138;2023-01-25T13:38:25;18.25;;;9.50;;
12181;SDS011;6154;51.550;12.138;2023-01-25T13:41:03;14.90;;;8.07;;
12181;SDS011;6154;51.550;12.138;2023-01-25T13:43:39;18.45;;;8.15;;
12181;SDS011;6154;51.550;12.138;2023-01-25T13:46:11;15.20;;;8.07;;
12181;SDS011;6154;51.550;12.138;2023-01-25T13:48:53;18.35;;;9.15;;
12181;SDS011;6154;51.550;12.138;2023-01-25T13:51:25;17.90;;;9.10;;
12181;SDS011;6154;51.550;12.138;2023-01-25T13:53:57;17.55;;;9.05;;
12181;SDS011;6154;51.550;12.138;2023-01-25T13:56:28;22.58;;;10.32;;
12181;SDS011;6154;51.550;12.138;2023-01-25T13:58:58;15.73;;;8.25;;
12181;SDS011;6154;51.550;12.138;2023-01-25T14:01:29;24.08;;;10.23;;
12181;SDS011;6154;51.550;12.138;2023-01-25T14:03:59;16.25;;;8.70;;
12181;SDS011;6154;51.550;12.138;2023-01-25T14:06:29;15.43;;;8.75;;
12181;SDS011;6154;51.550;12.138;2023-01-25T14:09:00;14.90;;;8.93;;
12181;SDS011;6154;51.550;12.138;2023-01-25T14:11:35;16.45;;;8.23;;
12181;SDS011;6154;51.550;12.138;2023-01-25T14:14:19;16.20;;;7.82;;
12181;SDS011;6154;51.550;12.138;2023-01-25T14:17:03;17.15;;;9.15;;
12181;SDS011;6154;51.550;12.138;2023-01-25T14:19:41;13.62;;;8.20;;
12181;SDS011;6154;51.550;12.138;2023-01-25T14:22:21;18.70;;;8.45;;
12181;SDS011;6154;51.550;12.138;2023-01-25T14:25:02;17.77;;;7.57;;
12181;SDS011;6154;51.550;12.138;2023-01-25T14:27:34;18.83;;;8.20;;
12181;SDS011;6154;51.550;12.138;2023-01-25T14:30:03;16.35;;;7.95;;
12181;SDS011;6154;51.550;12.138;2023-01-25T14:32:33;18.58;;;8.63;;
12181;SDS011;6154;51.550;12.138;2023-01-25T14:38:26;17.12;;;8.55;;
12181;SDS011;6154;51.550;12.138;2023-01-25T14:40:57;20.62;;;9.15;;
12181;SDS011;6154;51.550;12.138;2023-01-25T14:43:29;15.93;;;8.82;;
12181;SDS011;6154;51.550;12.138;2023-01-25T14:45:58;18.50;;;9.70;;
12181;SDS011;6154;51.550;12.138;2023-01-25T14:48:38;14.90;;;8.18;;
12181;SDS011;6154;51.550;12.138;2023-01-25T14:51:12;20.50;;;8.45;;
12181;SDS011;6154;51.550;12.138;2023-01-25T14:53:45;16.62;;;9.35;;
12181;SDS011;6154;51.550;12.138;2023-01-25T14:56:18;15.00;;;8.57;;
12181;SDS011;6154;51.550;12.138;2023-01-25T14:58:53;15.00;;;8.15;;
12181;SDS011;6154;51.550;12.138;2023-01-25T15:01:30;16.67;;;9.60;;
12181;SDS011;6154;51.550;12.138;2023-01-25T15:04:07;11.63;;;8.18;;
12181;SDS011;6154;51.550;12.138;2023-01-25T15:06:48;18.45;;;8.13;;
12181;SDS011;6154;51.550;12.138;2023-01-25T15:12:26;14.50;;;8.27;;
12181;SDS011;6154;51.550;12.138;2023-01-25T15:14:56;13.93;;;7.78;;
12181;SDS011;6154;51.550;12.138;2023-01-25T15:17:34;16.48;;;8.38;;
12181;SDS011;6154;51.550;12.138;2023-01-25T15:20:22;14.65;;;7.82;;
12181;SDS011;6154;51.550;12.138;2023-01-25T15:22:55;12.82;;;7.70;;
12181;SDS011;6154;51.550;12.138;2023-01-25T15:25:25;20.40;;;9.30;;